createdAt,value
2023-05-24T00:00:45.169Z,100.00
2023-05-24T00:01:49.203Z,100.00
2023-05-24T00:02:52.388Z,100.00
2023-05-24T00:04:01.968Z,100.00
2023-05-24T00:05:05.737Z,100.00
2023-05-24T00:06:08.893Z,100.00
2023-05-24T00:07:12.194Z,100.00
2023-05-24T00:08:16.568Z,100.00
2023-05-24T00:09:19.739Z,100.00
2023-05-24T00:10:22.925Z,100.00
2023-05-24T00:11:28.228Z,100.00
2023-05-24T00:12:31.383Z,100.00
2023-05-24T00:13:34.417Z,100.00
2023-05-24T00:14:37.695Z,100.00
2023-05-24T00:15:41.169Z,100.00
2023-05-24T00:16:44.468Z,100.00
2023-05-24T00:17:47.532Z,100.00
2023-05-24T00:18:50.839Z,100.00
2023-05-24T00:19:54.069Z,100.00
2023-05-24T00:20:58.821Z,100.00
2023-05-24T00:22:01.749Z,100.00
2023-05-24T00:23:04.705Z,100.00
2023-05-24T00:24:07.754Z,100.00
2023-05-24T00:25:10.888Z,100.00
2023-05-24T00:26:13.890Z,100.00
2023-05-24T00:27:16.900Z,100.00
2023-05-24T00:28:19.989Z,100.00
2023-05-24T00:29:23.092Z,100.00
2023-05-24T00:30:26.121Z,100.00
2023-05-24T00:31:29.158Z,100.00
2023-05-24T00:32:32.240Z,100.00
2023-05-24T00:33:35.334Z,100.00
2023-05-24T00:34:38.257Z,100.00
2023-05-24T00:35:41.360Z,100.00
2023-05-24T00:36:44.403Z,100.00
2023-05-24T00:37:48.432Z,100.00
2023-05-24T00:38:53.236Z,100.00
2023-05-24T00:39:56.208Z,100.00
2023-05-24T00:41:01.484Z,100.00
2023-05-24T00:42:04.679Z,100.00
2023-05-24T00:43:07.723Z,100.00
2023-05-24T00:44:11.336Z,100.00
2023-05-24T00:45:14.637Z,100.00
2023-05-24T00:46:30.661Z,100.00
2023-05-24T00:47:34.564Z,100.00
2023-05-24T00:48:37.559Z,100.00
2023-05-24T00:49:40.908Z,100.00
2023-05-24T00:50:44.061Z,100.00
2023-05-24T00:51:47.371Z,100.00
2023-05-24T00:52:51.901Z,100.00
2023-05-24T00:53:55.516Z,100.00
2023-05-24T00:54:58.698Z,100.00
2023-05-24T00:56:03.097Z,100.00
2023-05-24T00:57:06.410Z,100.00
2023-05-24T00:58:09.501Z,100.00
2023-05-24T00:59:12.800Z,100.00
2023-05-24T01:00:16.330Z,100.00
2023-05-24T01:01:19.355Z,100.00
2023-05-24T01:02:22.660Z,100.00
2023-05-24T01:03:29.614Z,100.00
2023-05-24T01:04:33.480Z,100.00
2023-05-24T01:05:36.611Z,100.00
2023-05-24T01:07:08.043Z,100.00
2023-05-24T01:08:29.647Z,100.00
2023-05-24T01:09:42.002Z,100.00
2023-05-24T01:11:01.858Z,100.00
2023-05-24T01:12:31.407Z,100.00
2023-05-24T01:13:39.237Z,100.00
2023-05-24T01:15:00.295Z,100.00
2023-05-24T01:16:16.212Z,100.00
2023-05-24T01:17:32.052Z,100.00
2023-05-24T01:18:44.812Z,100.00
2023-05-24T01:19:56.847Z,100.00
2023-05-24T01:21:30.818Z,100.00
2023-05-24T01:22:53.729Z,100.00
2023-05-24T01:24:26.147Z,100.00
2023-05-24T01:26:01.892Z,100.00
2023-05-24T01:27:10.222Z,100.00
2023-05-24T01:28:13.945Z,100.00
2023-05-24T01:29:18.321Z,100.00
2023-05-24T01:30:21.599Z,100.00
2023-05-24T01:31:25.097Z,100.00
2023-05-24T01:32:28.898Z,100.00
2023-05-24T01:33:32.872Z,100.00
2023-05-24T01:34:36.016Z,100.00
2023-05-24T01:35:42.912Z,100.00
2023-05-24T01:36:45.961Z,100.00
2023-05-24T01:37:49.091Z,100.00
2023-05-24T01:38:52.389Z,100.00
2023-05-24T01:39:55.735Z,100.00
2023-05-24T01:41:06.619Z,100.00
2023-05-24T01:42:25.028Z,100.00
2023-05-24T01:43:36.138Z,100.00
2023-05-24T01:45:18.710Z,100.00
2023-05-24T01:46:39.109Z,100.00
2023-05-24T01:47:54.772Z,100.00
2023-05-24T01:49:12.015Z,100.00
2023-05-24T01:50:37.439Z,100.00
2023-05-24T01:51:54.438Z,100.00
2023-05-24T01:53:04.050Z,100.00
2023-05-24T01:54:08.098Z,100.00
2023-05-24T01:55:15.674Z,100.00
2023-05-24T01:56:20.966Z,100.00
2023-05-24T01:57:27.315Z,100.00
2023-05-24T01:58:32.542Z,100.00
2023-05-24T01:59:36.610Z,100.00
2023-05-24T02:00:41.277Z,100.00
2023-05-24T02:01:45.016Z,100.00
2023-05-24T02:02:48.490Z,100.00
2023-05-24T02:03:51.683Z,100.00
2023-05-24T02:04:55.008Z,100.00
2023-05-24T02:05:58.063Z,100.00
2023-05-24T02:07:01.076Z,100.00
2023-05-24T02:08:04.087Z,100.00
2023-05-24T02:09:07.039Z,100.00
2023-05-24T02:10:10.160Z,100.00
2023-05-24T02:11:13.155Z,100.00
2023-05-24T02:12:16.294Z,100.00
2023-05-24T02:13:20.072Z,100.00
2023-05-24T02:14:23.080Z,100.00
2023-05-24T02:15:30.979Z,100.00
2023-05-24T02:16:34.177Z,100.00
2023-05-24T02:17:37.340Z,100.00
2023-05-24T02:18:40.440Z,100.00
2023-05-24T02:19:43.518Z,100.00
2023-05-24T02:20:47.253Z,100.00
2023-05-24T02:21:50.413Z,100.00
2023-05-24T02:22:53.435Z,100.00
2023-05-24T02:23:57.347Z,100.00
2023-05-24T02:25:00.317Z,100.00
2023-05-24T02:26:03.323Z,100.00
2023-05-24T02:27:07.005Z,100.00
2023-05-24T02:28:10.014Z,100.00
2023-05-24T02:29:13.222Z,100.00
2023-05-24T02:30:16.249Z,100.00
2023-05-24T02:31:19.277Z,100.00
2023-05-24T02:32:22.404Z,100.00
2023-05-24T02:33:30.258Z,100.00
2023-05-24T02:34:33.513Z,100.00
2023-05-24T02:35:36.478Z,100.00
2023-05-24T02:36:39.386Z,100.00
2023-05-24T02:37:42.447Z,100.00
2023-05-24T02:38:45.423Z,100.00
2023-05-24T02:39:48.363Z,100.00
2023-05-24T02:40:51.485Z,100.00
2023-05-24T02:41:54.792Z,100.00
2023-05-24T02:42:57.874Z,100.00
2023-05-24T02:44:00.922Z,100.00
2023-05-24T02:45:04.283Z,100.00
2023-05-24T02:46:07.290Z,100.00
2023-05-24T02:47:10.355Z,100.00
2023-05-24T02:48:13.329Z,100.00
2023-05-24T02:49:16.380Z,100.00
2023-05-24T02:50:19.446Z,100.00
2023-05-24T02:51:22.773Z,100.00
2023-05-24T02:52:27.031Z,100.00
2023-05-24T02:53:31.706Z,100.00
2023-05-24T02:54:34.697Z,100.00
2023-05-24T02:55:37.626Z,100.00
2023-05-24T02:56:41.228Z,100.00
2023-05-24T02:57:44.223Z,100.00
2023-05-24T02:58:47.530Z,100.00
2023-05-24T02:59:50.404Z,100.00
2023-05-24T03:00:53.351Z,100.00
2023-05-24T03:01:56.817Z,100.00
2023-05-24T03:03:03.498Z,100.00
2023-05-24T03:04:06.667Z,100.00
2023-05-24T03:05:10.057Z,100.00
2023-05-24T03:06:14.380Z,100.00
2023-05-24T03:07:17.633Z,100.00
2023-05-24T03:08:20.860Z,100.00
2023-05-24T03:09:23.930Z,100.00
2023-05-24T03:10:26.919Z,100.00
2023-05-24T03:11:30.027Z,100.00
2023-05-24T03:12:33.046Z,100.00
2023-05-24T03:13:36.041Z,100.00
2023-05-24T03:14:39.049Z,100.00
2023-05-24T03:15:43.156Z,100.00
2023-05-24T03:16:46.487Z,100.00
2023-05-24T03:17:49.584Z,100.00
2023-05-24T03:18:55.857Z,100.00
2023-05-24T03:19:58.961Z,100.00
2023-05-24T03:21:01.897Z,100.00
2023-05-24T03:22:05.024Z,100.00
2023-05-24T03:23:10.017Z,100.00
2023-05-24T03:24:13.510Z,100.00
2023-05-24T03:25:16.705Z,100.00
2023-05-24T03:26:20.804Z,100.00
2023-05-24T03:27:23.690Z,100.00
2023-05-24T03:28:27.865Z,100.00
2023-05-24T03:29:31.016Z,100.00
2023-05-24T03:30:34.260Z,100.00
2023-05-24T03:31:37.374Z,100.00
2023-05-24T03:32:40.393Z,100.00
2023-05-24T03:33:43.412Z,100.00
2023-05-24T03:34:46.385Z,100.00
2023-05-24T03:35:49.472Z,100.00
2023-05-24T03:36:53.085Z,100.00
2023-05-24T03:37:56.101Z,100.00
2023-05-24T03:38:59.451Z,100.00
2023-05-24T03:40:04.798Z,100.00
2023-05-24T03:41:07.833Z,100.00
2023-05-24T03:42:10.852Z,100.00
2023-05-24T03:43:13.999Z,100.00
2023-05-24T03:44:17.103Z,100.00
2023-05-24T03:45:30.580Z,100.00
2023-05-24T03:46:41.572Z,100.00
2023-05-24T03:47:44.733Z,100.00
2023-05-24T03:48:49.210Z,100.00
2023-05-24T03:49:52.366Z,100.00
2023-05-24T03:50:55.457Z,100.00
2023-05-24T03:51:58.508Z,100.00
2023-05-24T03:53:01.657Z,100.00
2023-05-24T03:54:04.621Z,100.00
2023-05-24T03:55:07.837Z,100.00
2023-05-24T03:56:10.846Z,100.00
2023-05-24T03:57:14.000Z,100.00
2023-05-24T03:58:17.071Z,100.00
2023-05-24T03:59:20.384Z,100.00
2023-05-24T04:00:23.266Z,100.00
2023-05-24T04:01:33.472Z,100.00
2023-05-24T04:02:38.488Z,100.00
2023-05-24T04:03:41.860Z,100.00
2023-05-24T04:04:46.011Z,100.00
2023-05-24T04:05:49.124Z,100.00
2023-05-24T04:06:52.123Z,100.00
2023-05-24T04:07:55.073Z,100.00
2023-05-24T04:08:59.514Z,100.00
2023-05-24T04:10:02.550Z,100.00
2023-05-24T04:11:05.742Z,100.00
2023-05-24T04:12:08.758Z,100.00
2023-05-24T04:13:11.830Z,100.00
2023-05-24T04:14:14.804Z,100.00
2023-05-24T04:15:18.042Z,100.00
2023-05-24T04:16:21.494Z,100.00
2023-05-24T04:17:25.229Z,100.00
2023-05-24T04:18:28.429Z,100.00
2023-05-24T04:19:31.547Z,100.00
2023-05-24T04:20:34.422Z,100.00
2023-05-24T04:21:38.454Z,100.00
2023-05-24T04:22:41.417Z,100.00
2023-05-24T04:23:44.399Z,100.00
2023-05-24T04:24:47.470Z,100.00
2023-05-24T04:25:50.574Z,100.00
2023-05-24T04:26:53.478Z,100.00
2023-05-24T04:27:57.389Z,100.00
2023-05-24T04:29:00.903Z,100.00
2023-05-24T04:30:04.200Z,100.00
2023-05-24T04:31:07.675Z,100.00
2023-05-24T04:32:10.805Z,100.00
2023-05-24T04:33:13.861Z,100.00
2023-05-24T04:34:16.889Z,100.00
2023-05-24T04:35:19.896Z,100.00
2023-05-24T04:36:24.160Z,100.00
2023-05-24T04:37:27.795Z,100.00
2023-05-24T04:38:32.657Z,100.00
2023-05-24T04:39:35.646Z,100.00
2023-05-24T04:40:38.921Z,100.00
2023-05-24T04:41:41.890Z,100.00
2023-05-24T04:42:45.156Z,100.00
2023-05-24T04:43:48.317Z,100.00
2023-05-24T04:44:51.286Z,100.00
2023-05-24T04:45:55.197Z,100.00
2023-05-24T04:46:58.361Z,100.00
2023-05-24T04:48:01.464Z,100.00
2023-05-24T04:49:06.091Z,100.00
2023-05-24T04:50:09.302Z,100.00
2023-05-24T04:51:12.359Z,100.00
2023-05-24T04:52:15.250Z,100.00
2023-05-24T04:53:18.520Z,100.00
2023-05-24T04:54:21.512Z,100.00
2023-05-24T04:55:24.369Z,100.00
2023-05-24T04:56:27.605Z,100.00
2023-05-24T04:57:30.649Z,100.00
2023-05-24T04:58:34.192Z,100.00
2023-05-24T04:59:37.260Z,100.00
2023-05-24T05:00:40.476Z,100.00
2023-05-24T05:01:43.746Z,100.00
2023-05-24T05:02:47.275Z,100.00
2023-05-24T05:03:50.264Z,100.00
2023-05-24T05:04:53.829Z,100.00
2023-05-24T05:05:56.742Z,100.00
2023-05-24T05:07:00.179Z,100.00
2023-05-24T05:08:04.101Z,100.00
2023-05-24T05:09:10.824Z,100.00
2023-05-24T05:10:13.759Z,100.00
2023-05-24T05:11:17.343Z,100.00
2023-05-24T05:12:20.437Z,100.00
2023-05-24T05:13:23.334Z,100.00
2023-05-24T05:14:26.419Z,100.00
2023-05-24T05:15:29.671Z,100.00
2023-05-24T05:16:33.132Z,100.00
2023-05-24T05:17:36.048Z,100.00
2023-05-24T05:18:39.092Z,100.00
2023-05-24T05:19:42.123Z,100.00
2023-05-24T05:20:45.459Z,100.00
2023-05-24T05:21:48.667Z,100.00
2023-05-24T05:22:51.820Z,100.00
2023-05-24T05:23:55.053Z,100.00
2023-05-24T05:24:58.013Z,100.00
2023-05-24T05:26:01.119Z,100.00
2023-05-24T05:27:04.249Z,100.00
2023-05-24T05:28:07.248Z,100.00
2023-05-24T05:29:10.428Z,100.00
2023-05-24T05:30:14.097Z,100.00
2023-05-24T05:31:17.369Z,99.98
2023-05-24T05:32:20.524Z,98.62
2023-05-24T05:33:23.848Z,98.69
2023-05-24T05:34:27.085Z,98.91
2023-05-24T05:35:30.105Z,99.02
2023-05-24T05:36:33.133Z,98.98
2023-05-24T05:37:36.218Z,99.33
2023-05-24T05:38:39.162Z,99.23
2023-05-24T05:39:42.042Z,98.10
2023-05-24T05:40:45.018Z,96.82
2023-05-24T05:41:47.835Z,95.91
2023-05-24T05:42:51.066Z,95.02
2023-05-24T05:43:53.949Z,94.65
2023-05-24T05:44:57.830Z,95.59
2023-05-24T05:46:03.733Z,95.22
2023-05-24T05:47:09.141Z,95.26
2023-05-24T05:48:12.076Z,95.54
2023-05-24T05:49:16.198Z,95.93
2023-05-24T05:50:19.114Z,95.76
2023-05-24T05:51:22.204Z,95.49
2023-05-24T05:52:25.435Z,95.27
2023-05-24T05:53:28.469Z,95.06
2023-05-24T05:54:31.602Z,92.75
2023-05-24T05:55:34.585Z,91.97
2023-05-24T05:56:41.528Z,92.63
2023-05-24T05:57:44.420Z,93.51
2023-05-24T05:58:47.490Z,93.91
2023-05-24T05:59:51.255Z,94.28
2023-05-24T06:00:54.189Z,94.24
2023-05-24T06:01:57.216Z,93.65
2023-05-24T06:03:00.379Z,93.14
2023-05-24T06:04:03.712Z,93.21
2023-05-24T06:05:07.091Z,93.33
2023-05-24T06:06:10.261Z,93.22
2023-05-24T06:07:13.379Z,92.86
2023-05-24T06:08:16.349Z,89.69
2023-05-24T06:09:19.363Z,89.27
2023-05-24T06:10:22.349Z,89.66
2023-05-24T06:11:25.287Z,89.49
2023-05-24T06:12:28.198Z,87.59
2023-05-24T06:13:33.201Z,87.76
2023-05-24T06:14:38.656Z,88.52
2023-05-24T06:15:41.706Z,87.81
2023-05-24T06:16:46.405Z,87.31
2023-05-24T06:17:50.588Z,88.27
2023-05-24T06:19:05.548Z,86.20
2023-05-24T06:20:11.683Z,86.54
2023-05-24T06:21:15.991Z,87.63
2023-05-24T06:22:19.022Z,88.36
2023-05-24T06:23:21.925Z,89.32
2023-05-24T06:24:25.339Z,89.99
2023-05-24T06:25:31.043Z,90.27
2023-05-24T06:26:33.955Z,90.69
2023-05-24T06:27:36.975Z,90.70
2023-05-24T06:28:40.013Z,91.17
2023-05-24T06:29:42.928Z,91.36
2023-05-24T06:30:47.882Z,91.55
2023-05-24T06:31:51.402Z,90.76
2023-05-24T06:32:54.578Z,89.83
2023-05-24T06:35:05.840Z,89.56
2023-05-24T06:36:08.923Z,87.70
2023-05-24T06:37:15.420Z,86.08
2023-05-24T06:38:18.367Z,85.07
2023-05-24T06:39:21.416Z,85.19
2023-05-24T06:40:24.377Z,85.61
2023-05-24T06:41:28.295Z,86.23
2023-05-24T06:42:31.299Z,86.16
2023-05-24T06:43:34.915Z,86.65
2023-05-24T06:44:37.882Z,87.45
2023-05-24T06:45:40.719Z,87.41
2023-05-24T06:46:43.877Z,87.37
2023-05-24T06:47:47.301Z,86.55
2023-05-24T06:48:50.376Z,86.10
2023-05-24T06:49:53.973Z,86.43
2023-05-24T06:50:57.082Z,86.19
2023-05-24T06:52:00.173Z,84.86
2023-05-24T06:53:03.386Z,84.53
2023-05-24T06:54:07.011Z,84.88
2023-05-24T06:55:10.110Z,85.32
2023-05-24T06:56:13.327Z,85.53
2023-05-24T06:57:16.366Z,85.90
2023-05-24T06:58:19.356Z,85.98
2023-05-24T06:59:23.250Z,85.16
2023-05-24T07:00:26.278Z,84.17
2023-05-24T07:01:30.093Z,84.04
2023-05-24T07:02:33.053Z,83.98
2023-05-24T07:03:36.573Z,84.79
2023-05-24T07:04:41.644Z,84.34
2023-05-24T07:05:44.698Z,84.33
2023-05-24T07:06:47.730Z,84.51
2023-05-24T07:07:50.748Z,83.70
2023-05-24T07:08:53.824Z,83.56
2023-05-24T07:09:57.121Z,83.47
2023-05-24T07:11:00.352Z,83.30
2023-05-24T07:12:03.616Z,82.40
2023-05-24T07:13:07.069Z,82.36
2023-05-24T07:14:09.998Z,82.02
2023-05-24T07:15:13.526Z,82.37
2023-05-24T07:16:16.662Z,82.67
2023-05-24T07:17:19.755Z,83.48
2023-05-24T07:18:22.764Z,83.96
2023-05-24T07:19:29.813Z,83.46
2023-05-24T07:20:33.518Z,83.67
2023-05-24T07:21:37.750Z,83.64
2023-05-24T07:22:41.685Z,83.08
2023-05-24T07:23:44.788Z,83.15
2023-05-24T07:24:47.828Z,83.26
2023-05-24T07:25:51.003Z,83.47
2023-05-24T07:26:54.098Z,83.56
2023-05-24T07:27:57.225Z,83.19
2023-05-24T07:29:00.160Z,83.62
2023-05-24T07:30:04.101Z,82.35
2023-05-24T07:31:08.397Z,80.92
2023-05-24T07:32:11.698Z,81.12
2023-05-24T07:33:14.760Z,80.00
2023-05-24T07:34:21.558Z,79.66
2023-05-24T07:35:25.141Z,80.53
2023-05-24T07:36:31.601Z,79.21
2023-05-24T07:37:37.469Z,80.01
2023-05-24T07:38:40.459Z,80.32
2023-05-24T07:39:43.922Z,81.10
2023-05-24T07:40:46.967Z,81.13
2023-05-24T07:41:51.202Z,79.24
2023-05-24T07:42:54.269Z,81.03
2023-05-24T07:43:57.476Z,80.74
2023-05-24T07:45:00.471Z,80.16
2023-05-24T07:46:03.670Z,78.26
2023-05-24T07:47:07.067Z,78.21
2023-05-24T07:48:10.414Z,78.45
2023-05-24T07:49:13.436Z,77.40
2023-05-24T07:50:16.891Z,76.40
2023-05-24T07:51:20.906Z,77.55
2023-05-24T07:52:24.715Z,77.15
2023-05-24T07:53:27.971Z,77.06
2023-05-24T07:54:30.948Z,76.04
2023-05-24T07:55:34.077Z,76.27
2023-05-24T07:56:38.013Z,76.60
2023-05-24T07:57:41.455Z,76.82
2023-05-24T07:58:47.140Z,76.43
2023-05-24T07:59:50.370Z,75.34
2023-05-24T08:00:53.361Z,74.84
2023-05-24T08:02:01.879Z,74.12
2023-05-24T08:03:06.272Z,74.97
2023-05-24T08:04:10.547Z,74.73
2023-05-24T08:05:14.156Z,74.77
2023-05-24T08:06:17.205Z,73.82
2023-05-24T08:07:20.283Z,72.46
2023-05-24T08:08:23.403Z,71.71
2023-05-24T08:09:28.507Z,72.15
2023-05-24T08:10:31.563Z,72.76
2023-05-24T08:11:34.638Z,73.18
2023-05-24T08:12:37.664Z,72.54
2023-05-24T08:13:40.545Z,73.14
2023-05-24T08:14:43.824Z,73.47
2023-05-24T08:15:46.954Z,73.17
2023-05-24T08:16:49.964Z,71.71
2023-05-24T08:17:52.943Z,72.87
2023-05-24T08:18:55.996Z,71.69
2023-05-24T08:19:59.031Z,74.30
2023-05-24T08:21:02.655Z,72.57
2023-05-24T08:22:05.735Z,71.99
2023-05-24T08:23:08.822Z,72.76
2023-05-24T08:24:12.053Z,71.60
2023-05-24T08:25:15.410Z,71.75
2023-05-24T08:26:19.753Z,71.97
2023-05-24T08:27:22.868Z,71.78
2023-05-24T08:28:27.202Z,71.68
2023-05-24T08:29:30.151Z,72.12
2023-05-24T08:30:33.885Z,72.64
2023-05-24T08:31:36.923Z,72.32
2023-05-24T08:32:40.531Z,72.31
2023-05-24T08:33:43.631Z,72.57
2023-05-24T08:34:46.763Z,72.50
2023-05-24T08:35:51.500Z,72.56
2023-05-24T08:36:55.493Z,73.15
2023-05-24T08:37:58.465Z,73.90
2023-05-24T08:39:01.718Z,73.76
2023-05-24T08:40:05.320Z,72.73
2023-05-24T08:41:08.849Z,72.67
2023-05-24T08:42:12.086Z,72.60
2023-05-24T08:43:15.872Z,72.73
2023-05-24T08:44:19.648Z,73.26
2023-05-24T08:45:23.070Z,73.08
2023-05-24T08:46:26.698Z,72.53
2023-05-24T08:47:31.529Z,71.82
2023-05-24T08:48:47.369Z,70.09
2023-05-24T08:49:52.665Z,71.39
2023-05-24T08:50:57.675Z,70.08
2023-05-24T08:52:01.683Z,71.34
2023-05-24T08:53:07.514Z,70.32
2023-05-24T08:54:12.566Z,68.35
2023-05-24T08:55:15.820Z,69.23
2023-05-24T08:56:19.237Z,69.08
2023-05-24T08:57:22.695Z,69.08
2023-05-24T08:58:26.160Z,69.91
2023-05-24T08:59:29.331Z,71.20
2023-05-24T09:00:32.397Z,68.92
2023-05-24T09:01:37.583Z,68.25
2023-05-24T09:02:43.153Z,67.14
2023-05-24T09:03:47.915Z,67.76
2023-05-24T09:04:53.670Z,68.67
2023-05-24T09:05:56.914Z,69.09
2023-05-24T09:07:00.240Z,69.74
2023-05-24T09:08:03.645Z,70.41
2023-05-24T09:09:07.821Z,70.51
2023-05-24T09:10:11.536Z,70.50
2023-05-24T09:11:16.881Z,69.44
2023-05-24T09:12:35.625Z,69.86
2023-05-24T09:13:41.290Z,69.37
2023-05-24T09:14:47.339Z,69.50
2023-05-24T09:15:50.362Z,69.98
2023-05-24T09:16:54.094Z,68.49
2023-05-24T09:17:57.211Z,68.77
2023-05-24T09:19:00.220Z,70.28
2023-05-24T09:20:07.319Z,69.44
2023-05-24T09:21:13.915Z,69.54
2023-05-24T09:22:23.728Z,69.23
2023-05-24T09:23:27.587Z,68.71
2023-05-24T09:24:30.495Z,67.03
2023-05-24T09:25:33.542Z,66.28
2023-05-24T09:26:37.505Z,65.50
2023-05-24T09:27:40.622Z,67.14
2023-05-24T09:28:44.615Z,66.60
2023-05-24T09:29:52.210Z,66.98
2023-05-24T09:31:03.319Z,66.83
2023-05-24T09:32:10.725Z,65.81
2023-05-24T09:33:13.914Z,66.90
2023-05-24T09:34:17.075Z,67.12
2023-05-24T09:35:20.038Z,67.57
2023-05-24T09:36:22.896Z,66.09
2023-05-24T09:37:31.080Z,66.03
2023-05-24T09:38:36.763Z,65.57
2023-05-24T09:39:52.019Z,64.82
2023-05-24T09:41:03.060Z,64.59
2023-05-24T09:42:06.576Z,63.70
2023-05-24T09:43:10.451Z,63.20
2023-05-24T09:44:15.634Z,64.21
2023-05-24T09:45:18.663Z,65.00
2023-05-24T09:46:22.112Z,65.47
2023-05-24T09:47:32.192Z,64.84
2023-05-24T09:48:35.348Z,64.23
2023-05-24T09:49:39.074Z,63.65
2023-05-24T09:50:42.606Z,61.79
2023-05-24T09:51:46.532Z,62.40
2023-05-24T09:52:49.836Z,63.09
2023-05-24T09:53:57.878Z,63.50
2023-05-24T09:55:01.168Z,61.82
2023-05-24T09:56:05.894Z,62.06
2023-05-24T09:57:08.965Z,63.20
2023-05-24T09:58:13.122Z,62.26
2023-05-24T09:59:16.940Z,62.11
2023-05-24T10:00:24.014Z,62.24
2023-05-24T10:01:28.492Z,61.17
2023-05-24T10:02:41.531Z,59.94
2023-05-24T10:03:59.531Z,60.96
2023-05-24T10:05:03.962Z,61.12
2023-05-24T10:06:11.756Z,61.09
2023-05-24T10:07:16.701Z,62.03
2023-05-24T10:08:21.858Z,61.42
2023-05-24T10:09:26.556Z,61.60
2023-05-24T10:10:31.286Z,60.94
2023-05-24T10:11:40.249Z,59.15
2023-05-24T10:12:47.162Z,60.57
2023-05-24T10:13:50.349Z,59.96
2023-05-24T10:14:57.755Z,58.75
2023-05-24T10:16:00.966Z,59.32
2023-05-24T10:17:05.781Z,59.06
2023-05-24T10:18:11.508Z,57.28
2023-05-24T10:19:17.283Z,59.28
2023-05-24T10:20:20.497Z,60.33
2023-05-24T10:21:25.113Z,60.36
2023-05-24T10:22:28.846Z,61.05
2023-05-24T10:23:32.866Z,58.41
2023-05-24T10:24:48.117Z,56.78
2023-05-24T10:26:22.123Z,57.13
2023-05-24T10:27:31.996Z,56.02
2023-05-24T10:28:57.651Z,56.51
2023-05-24T10:30:16.802Z,58.73
2023-05-24T10:31:32.848Z,58.65
2023-05-24T10:32:39.901Z,60.49
2023-05-24T10:33:45.685Z,59.54
2023-05-24T10:34:49.897Z,60.79
2023-05-24T10:35:54.091Z,60.46
2023-05-24T10:36:59.587Z,59.02
2023-05-24T10:38:06.983Z,59.72
2023-05-24T10:39:13.619Z,61.04
2023-05-24T10:40:20.523Z,61.41
2023-05-24T10:41:29.281Z,60.18
2023-05-24T10:42:32.928Z,61.71
2023-05-24T10:43:36.873Z,62.74
2023-05-24T10:44:39.996Z,63.06
2023-05-24T10:45:43.085Z,60.56
2023-05-24T10:47:07.427Z,62.01
2023-05-24T10:48:13.695Z,59.93
2023-05-24T10:49:19.498Z,58.10
2023-05-24T10:50:24.259Z,59.01
2023-05-24T10:51:42.732Z,60.17
2023-05-24T10:52:46.081Z,58.42
2023-05-24T10:53:50.098Z,59.09
2023-05-24T10:55:05.906Z,60.24
2023-05-24T10:56:13.993Z,58.34
2023-05-24T10:57:24.806Z,56.73
2023-05-24T10:59:00.056Z,57.97
2023-05-24T11:00:34.045Z,56.34
2023-05-24T11:01:38.555Z,57.58
2023-05-24T11:02:41.682Z,58.25
2023-05-24T11:03:44.910Z,57.98
2023-05-24T11:04:49.597Z,59.22
2023-05-24T11:05:55.043Z,58.50
2023-05-24T11:07:03.685Z,56.92
2023-05-24T11:08:07.725Z,57.43
2023-05-24T11:09:11.041Z,58.54
2023-05-24T11:10:17.167Z,58.02
2023-05-24T11:12:34.909Z,60.15
2023-05-24T11:13:39.398Z,59.47
2023-05-24T11:14:49.452Z,59.85
2023-05-24T11:15:52.780Z,56.55
2023-05-24T11:16:56.999Z,56.44
2023-05-24T11:18:26.407Z,57.19
2023-05-24T11:19:46.074Z,58.67
2023-05-24T11:20:50.219Z,56.92
2023-05-24T11:21:53.976Z,56.61
2023-05-24T11:22:57.152Z,58.30
2023-05-24T11:24:00.234Z,57.03
2023-05-24T11:25:06.417Z,56.37
2023-05-24T11:26:10.352Z,57.41
2023-05-24T11:27:14.538Z,57.03
2023-05-24T11:28:18.726Z,57.23
2023-05-24T11:29:23.061Z,56.57
2023-05-24T11:30:26.803Z,54.14
2023-05-24T11:31:29.868Z,55.11
2023-05-24T11:32:33.738Z,56.37
2023-05-24T11:33:42.862Z,56.37
2023-05-24T11:34:47.593Z,56.96
2023-05-24T11:35:55.646Z,57.78
2023-05-24T11:37:00.569Z,57.11
2023-05-24T11:38:03.804Z,55.49
2023-05-24T11:39:10.267Z,55.65
2023-05-24T11:40:15.450Z,56.48
2023-05-24T11:41:18.516Z,54.01
2023-05-24T11:42:23.594Z,55.47
2023-05-24T11:43:26.738Z,56.01
2023-05-24T11:44:32.141Z,54.96
2023-05-24T11:45:35.274Z,52.56
2023-05-24T11:46:40.114Z,53.72
2023-05-24T11:47:43.131Z,52.77
2023-05-24T11:48:56.936Z,53.84
2023-05-24T11:49:59.790Z,55.02
2023-05-24T11:51:05.715Z,54.79
2023-05-24T11:52:09.036Z,52.89
2023-05-24T11:53:17.947Z,51.96
2023-05-24T11:54:22.337Z,53.31
2023-05-24T11:55:25.283Z,50.41
2023-05-24T11:56:33.487Z,50.68
2023-05-24T11:57:41.378Z,52.50
2023-05-24T11:58:53.042Z,51.62
2023-05-24T11:59:56.962Z,52.65
2023-05-24T12:01:00.069Z,50.18
2023-05-24T12:02:07.144Z,51.62
2023-05-24T12:03:10.804Z,51.92
2023-05-24T12:04:14.770Z,53.05
2023-05-24T12:05:19.826Z,52.48
2023-05-24T12:06:23.193Z,52.77
2023-05-24T12:07:26.093Z,53.44
2023-05-24T12:08:29.037Z,53.70
2023-05-24T12:09:32.061Z,53.66
2023-05-24T12:10:36.073Z,54.35
2023-05-24T12:11:50.326Z,53.67
2023-05-24T12:12:53.365Z,53.90
2023-05-24T12:13:58.811Z,52.94
2023-05-24T12:15:01.795Z,53.91
2023-05-24T12:16:04.913Z,54.79
2023-05-24T12:17:18.819Z,54.47
2023-05-24T12:18:22.957Z,55.18
2023-05-24T12:19:33.486Z,54.33
2023-05-24T12:20:39.451Z,53.72
2023-05-24T12:21:43.088Z,52.31
2023-05-24T12:22:53.149Z,52.82
2023-05-24T12:23:56.153Z,53.53
2023-05-24T12:24:59.201Z,53.77
2023-05-24T12:26:02.747Z,53.62
2023-05-24T12:27:08.350Z,55.23
2023-05-24T12:28:13.197Z,54.92
2023-05-24T12:29:17.980Z,57.01
2023-05-24T12:30:25.371Z,54.83
2023-05-24T12:31:28.423Z,54.27
2023-05-24T12:32:31.815Z,53.51
2023-05-24T12:33:35.091Z,54.75
2023-05-24T12:34:40.873Z,54.10
2023-05-24T12:35:44.120Z,55.67
2023-05-24T12:36:48.038Z,53.93
2023-05-24T12:37:59.949Z,53.80
2023-05-24T12:39:32.147Z,55.34
2023-05-24T12:40:35.315Z,55.38
2023-05-24T12:41:38.462Z,54.49
2023-05-24T12:42:41.432Z,55.08
2023-05-24T12:43:44.847Z,54.85
2023-05-24T12:44:52.840Z,53.86
2023-05-24T12:45:56.248Z,53.25
2023-05-24T12:46:59.782Z,51.61
2023-05-24T12:48:05.242Z,52.48
2023-05-24T12:49:08.398Z,52.89
2023-05-24T12:50:11.925Z,53.97
2023-05-24T12:51:15.242Z,53.52
2023-05-24T12:52:18.228Z,54.39
2023-05-24T12:53:24.361Z,54.98
2023-05-24T12:54:28.752Z,56.36
2023-05-24T12:55:31.810Z,56.23
2023-05-24T12:56:34.823Z,57.22
2023-05-24T12:57:37.868Z,56.51
2023-05-24T12:58:41.653Z,54.58
2023-05-24T12:59:44.656Z,54.99
2023-05-24T13:00:50.579Z,55.18
2023-05-24T13:01:54.042Z,54.66
2023-05-24T13:02:59.532Z,55.45
2023-05-24T13:04:02.736Z,55.19
2023-05-24T13:05:06.066Z,55.71
2023-05-24T13:06:09.167Z,55.80
2023-05-24T13:07:12.084Z,55.08
2023-05-24T13:08:15.187Z,55.97
2023-05-24T13:09:23.715Z,53.75
2023-05-24T13:10:27.889Z,53.68
2023-05-24T13:11:31.559Z,52.52
2023-05-24T13:12:34.616Z,54.43
2023-05-24T13:13:38.577Z,53.42
2023-05-24T13:14:41.649Z,52.58
2023-05-24T13:15:45.034Z,52.62
2023-05-24T13:16:48.593Z,51.83
2023-05-24T13:17:51.843Z,52.38
2023-05-24T13:18:55.779Z,53.85
2023-05-24T13:20:05.792Z,53.94
2023-05-24T13:21:11.970Z,53.58
2023-05-24T13:22:15.768Z,51.98
2023-05-24T13:23:18.776Z,52.41
2023-05-24T13:24:22.753Z,52.70
2023-05-24T13:25:26.944Z,53.35
2023-05-24T13:26:30.900Z,54.54
2023-05-24T13:27:34.311Z,52.72
2023-05-24T13:28:38.231Z,53.59
2023-05-24T13:29:59.316Z,54.39
2023-05-24T13:31:04.049Z,52.52
2023-05-24T13:32:07.417Z,50.99
2023-05-24T13:33:10.545Z,51.74
2023-05-24T13:34:13.730Z,52.23
2023-05-24T13:35:16.930Z,51.66
2023-05-24T13:36:20.100Z,50.60
2023-05-24T13:37:24.393Z,50.78
2023-05-24T13:38:27.594Z,53.30
2023-05-24T13:39:30.816Z,52.40
2023-05-24T13:40:33.963Z,52.44
2023-05-24T13:41:37.379Z,53.06
2023-05-24T13:42:40.744Z,53.96
2023-05-24T13:43:43.660Z,50.89
2023-05-24T13:44:46.602Z,51.78
2023-05-24T13:45:49.650Z,52.09
2023-05-24T13:46:52.726Z,51.92
2023-05-24T13:48:03.787Z,52.01
2023-05-24T13:49:07.847Z,52.23